createdAt,value
2023-06-09T00:02:17.117Z,4.43
2023-06-09T00:07:18.732Z,4.57
2023-06-09T00:12:20.315Z,4.97
2023-06-09T00:17:25.446Z,4.47
2023-06-09T00:22:27.914Z,4.68
2023-06-09T00:27:30.543Z,4.50
2023-06-09T00:32:32.255Z,4.70
2023-06-09T00:37:33.936Z,4.60
2023-06-09T00:42:35.500Z,4.57
2023-06-09T00:47:37.237Z,4.68
2023-06-09T00:52:38.807Z,4.15
2023-06-09T00:57:40.864Z,4.57
2023-06-09T01:02:42.478Z,4.88
2023-06-09T01:07:51.564Z,4.43
2023-06-09T01:13:25.041Z,4.25
2023-06-09T01:18:31.940Z,5.63
2023-06-09T01:23:52.670Z,4.80
2023-06-09T01:28:56.311Z,4.97
2023-06-09T01:33:58.203Z,4.85
2023-06-09T01:38:59.856Z,5.45
2023-06-09T01:44:01.405Z,4.50
2023-06-09T01:49:02.876Z,5.03
2023-06-09T01:54:12.901Z,5.45
2023-06-09T01:59:21.801Z,5.57
2023-06-09T02:04:26.543Z,6.65
2023-06-09T02:09:28.186Z,5.57
2023-06-09T02:14:34.194Z,5.57
2023-06-09T02:19:39.830Z,5.03
2023-06-09T02:24:41.407Z,5.40
2023-06-09T02:29:43.031Z,5.82
2023-06-09T02:34:46.297Z,6.20
2023-06-09T02:39:47.880Z,6.22
2023-06-09T02:44:49.888Z,5.40
2023-06-09T02:49:51.567Z,6.95
2023-06-09T02:54:53.099Z,6.55
2023-06-09T02:59:55.130Z,6.15
2023-06-09T03:04:57.810Z,6.35
2023-06-09T03:10:01.068Z,5.75
2023-06-09T03:15:02.650Z,5.72
2023-06-09T03:20:07.349Z,5.88
2023-06-09T03:25:10.214Z,5.63
2023-06-09T03:30:12.548Z,6.15
2023-06-09T03:35:14.269Z,6.25
2023-06-09T03:40:16.439Z,6.50
2023-06-09T03:45:18.080Z,6.10
2023-06-09T03:50:19.821Z,6.15
2023-06-09T03:55:23.611Z,5.85
2023-06-09T04:00:25.284Z,6.35
2023-06-09T04:05:26.965Z,6.65
2023-06-09T04:10:28.524Z,6.60
2023-06-09T04:15:30.094Z,6.88
2023-06-09T04:20:31.624Z,6.30
2023-06-09T04:25:35.876Z,6.40
2023-06-09T04:30:39.272Z,6.90
2023-06-09T04:35:42.295Z,6.25
2023-06-09T04:40:46.626Z,6.38
2023-06-09T04:45:48.218Z,6.65
2023-06-09T04:50:50.725Z,5.45
2023-06-09T04:55:53.313Z,5.95
2023-06-09T05:00:54.883Z,6.20
2023-06-09T05:05:56.440Z,5.47
2023-06-09T05:10:59.067Z,5.82
2023-06-09T05:16:00.751Z,6.28
2023-06-09T05:21:02.343Z,5.55
2023-06-09T05:26:03.945Z,6.07
2023-06-09T05:31:05.495Z,6.00
2023-06-09T05:36:07.790Z,6.72
2023-06-09T05:41:09.332Z,6.80
2023-06-09T05:46:10.909Z,6.20
2023-06-09T05:51:13.728Z,6.53
2023-06-09T05:56:18.118Z,6.50
2023-06-09T06:01:21.015Z,7.00
2023-06-09T06:06:22.690Z,6.50
2023-06-09T06:11:24.448Z,6.13
2023-06-09T06:16:26.013Z,7.10
2023-06-09T06:21:27.520Z,6.63
2023-06-09T06:26:30.175Z,6.80
2023-06-09T06:31:32.283Z,6.15
2023-06-09T06:36:34.175Z,6.47
2023-06-09T06:41:35.687Z,6.82
2023-06-09T06:46:37.309Z,7.35
2023-06-09T06:51:41.300Z,7.28
2023-06-09T06:56:42.861Z,6.68
2023-06-09T07:01:44.418Z,6.45
2023-06-09T07:06:46.960Z,6.90
2023-06-09T07:11:48.549Z,7.15
2023-06-09T07:16:50.107Z,6.88
2023-06-09T07:21:51.622Z,7.72
2023-06-09T07:26:54.422Z,7.00
2023-06-09T07:31:56.120Z,6.53
2023-06-09T07:36:58.122Z,8.13
2023-06-09T07:41:59.680Z,7.18
2023-06-09T07:47:01.184Z,7.45
2023-06-09T07:52:10.034Z,7.70
2023-06-09T07:57:22.730Z,9.45
2023-06-09T08:02:24.821Z,8.18
2023-06-09T08:07:27.409Z,8.02
2023-06-09T08:12:28.931Z,8.38
2023-06-09T08:17:30.584Z,8.77
2023-06-09T08:22:32.189Z,8.48
2023-06-09T08:27:34.044Z,8.93
2023-06-09T08:32:36.616Z,8.75
2023-06-09T08:37:38.547Z,8.10
2023-06-09T08:42:40.878Z,8.32
2023-06-09T08:47:47.807Z,7.90
2023-06-09T08:52:49.959Z,7.93
2023-06-09T08:57:52.441Z,7.85
2023-06-09T09:02:54.216Z,7.93
2023-06-09T09:07:55.754Z,8.60
2023-06-09T09:12:57.438Z,8.52
2023-06-09T09:17:58.997Z,8.43
2023-06-09T09:23:00.616Z,8.40
2023-06-09T09:28:07.507Z,8.63
2023-06-09T09:38:21.077Z,8.68
2023-06-09T09:43:25.930Z,7.53
2023-06-09T09:48:27.676Z,7.93
2023-06-09T09:53:29.247Z,7.72
2023-06-09T09:58:35.829Z,7.18
2023-06-09T10:03:45.438Z,7.47
2023-06-09T10:08:47.922Z,7.60
2023-06-09T10:13:49.620Z,7.80
2023-06-09T10:18:51.985Z,6.38
2023-06-09T10:23:54.249Z,6.85
2023-06-09T10:28:56.013Z,6.20
2023-06-09T10:33:57.984Z,5.60
2023-06-09T10:39:15.197Z,6.45
2023-06-09T10:44:35.268Z,6.60
2023-06-09T10:49:40.092Z,5.88
2023-06-09T10:54:41.781Z,6.75
2023-06-09T10:59:49.066Z,6.35
2023-06-09T11:04:53.391Z,5.63
2023-06-09T11:09:57.892Z,6.90
2023-06-09T11:15:00.460Z,6.53
2023-06-09T11:20:13.317Z,5.53
2023-06-09T11:25:18.165Z,5.57
2023-06-09T11:30:20.290Z,5.10
2023-06-09T11:35:31.056Z,5.38
2023-06-09T11:40:38.565Z,5.10
2023-06-09T11:45:40.149Z,5.72
2023-06-09T11:50:48.005Z,5.35
2023-06-09T11:55:59.665Z,5.53
2023-06-09T12:01:01.180Z,4.55
2023-06-09T12:06:02.949Z,5.25
2023-06-09T12:11:04.676Z,5.20
2023-06-09T12:16:06.296Z,5.03
2023-06-09T12:21:10.438Z,4.70
2023-06-09T12:26:14.360Z,5.30
2023-06-09T12:31:16.055Z,4.82
2023-06-09T12:36:17.914Z,4.32
2023-06-09T12:41:19.740Z,4.75
2023-06-09T12:46:27.258Z,4.65
2023-06-09T12:51:29.702Z,5.15
2023-06-09T12:56:32.054Z,4.68
2023-06-09T13:01:33.725Z,4.47
2023-06-09T13:06:35.879Z,4.13
2023-06-09T13:11:37.810Z,4.40
2023-06-09T13:16:39.407Z,4.40
2023-06-09T13:21:44.958Z,4.00
2023-06-09T13:26:49.179Z,4.47
2023-06-09T13:31:50.957Z,3.80
2023-06-09T13:36:53.793Z,4.22
2023-06-09T13:41:55.309Z,4.03
2023-06-09T13:46:56.846Z,4.22
2023-06-09T13:51:58.356Z,4.60
2023-06-09T13:56:59.843Z,3.78
2023-06-09T14:02:01.506Z,3.80
2023-06-09T14:07:03.748Z,3.90
2023-06-09T14:12:10.039Z,3.90
2023-06-09T14:17:12.119Z,4.38
2023-06-09T14:22:13.698Z,4.25
2023-06-09T14:27:15.370Z,4.47
2023-06-09T14:32:16.916Z,7.38
2023-06-09T14:37:18.456Z,3.60
2023-06-09T14:42:20.062Z,3.83
2023-06-09T14:47:21.651Z,3.92
2023-06-09T14:52:23.210Z,3.90
2023-06-09T14:57:24.766Z,3.97
2023-06-09T15:02:26.488Z,3.80
2023-06-09T15:07:28.017Z,3.50
2023-06-09T15:12:29.612Z,3.70
2023-06-09T15:17:35.471Z,4.00
2023-06-09T15:22:39.332Z,3.40
2023-06-09T15:27:45.592Z,3.90
2023-06-09T15:32:49.439Z,3.92
2023-06-09T15:37:51.062Z,3.75
2023-06-09T15:42:52.603Z,3.92
2023-06-09T15:47:54.554Z,3.88
2023-06-09T15:52:56.243Z,3.85
2023-06-09T15:57:58.244Z,3.60
2023-06-09T16:03:05.116Z,4.85
2023-06-09T16:08:09.294Z,4.57
2023-06-09T16:13:11.105Z,4.57
2023-06-09T16:18:14.243Z,4.38
2023-06-09T16:23:16.023Z,4.70
2023-06-09T16:28:17.601Z,4.65
2023-06-09T16:33:19.246Z,4.93
2023-06-09T16:38:20.816Z,4.72
2023-06-09T16:43:22.382Z,4.55
2023-06-09T16:48:23.896Z,4.60
2023-06-09T16:53:25.472Z,5.18
2023-06-09T16:58:27.137Z,4.80
2023-06-09T17:03:28.786Z,5.00
2023-06-09T17:08:30.419Z,4.20
2023-06-09T17:13:32.041Z,4.80
2023-06-09T17:18:33.603Z,5.07
2023-06-09T17:23:35.213Z,4.20
2023-06-09T17:28:36.858Z,5.32
2023-06-09T17:33:38.416Z,4.63
2023-06-09T17:38:39.984Z,4.07
2023-06-09T17:43:41.541Z,4.43
2023-06-09T17:48:44.918Z,6.03
2023-06-09T17:53:46.547Z,4.28
2023-06-09T17:58:48.124Z,4.43
2023-06-09T18:03:49.672Z,4.45
2023-06-09T18:08:51.504Z,4.75
2023-06-09T18:13:53.402Z,4.32
2023-06-09T18:18:55.011Z,4.05
2023-06-09T18:23:56.943Z,4.45
2023-06-09T18:28:58.743Z,4.88
2023-06-09T18:34:00.556Z,4.75
2023-06-09T18:39:02.221Z,5.00
2023-06-09T18:44:15.561Z,5.57
2023-06-09T18:49:17.175Z,4.15
2023-06-09T18:54:18.763Z,5.45
2023-06-09T18:59:20.739Z,4.63
2023-06-09T19:04:22.767Z,4.50
2023-06-09T19:09:24.455Z,4.88
2023-06-09T19:14:26.024Z,4.38
2023-06-09T19:19:27.537Z,5.07
2023-06-09T19:24:29.100Z,4.88
2023-06-09T19:29:30.995Z,4.38
2023-06-09T19:34:32.678Z,4.47
2023-06-09T19:39:34.312Z,4.70
2023-06-09T19:44:35.853Z,4.72
2023-06-09T19:49:37.422Z,4.72
2023-06-09T19:54:39.627Z,4.53
2023-06-09T19:59:41.248Z,4.78
2023-06-09T20:04:42.978Z,4.70
2023-06-09T20:09:44.917Z,4.70
2023-06-09T20:14:47.455Z,4.53
2023-06-09T20:19:49.269Z,5.18
2023-06-09T20:24:50.960Z,5.40
2023-06-09T20:29:52.634Z,5.32
2023-06-09T20:34:54.177Z,5.60
2023-06-09T20:39:56.068Z,5.63
2023-06-09T20:44:57.600Z,5.43
2023-06-09T20:49:59.209Z,6.03
2023-06-09T20:55:01.199Z,5.97
2023-06-09T21:00:03.512Z,6.28
2023-06-09T21:05:06.378Z,6.05
2023-06-09T21:10:08.518Z,5.95
2023-06-09T21:15:10.794Z,7.03
2023-06-09T21:20:13.449Z,5.53
2023-06-09T21:25:16.482Z,5.20
2023-06-09T21:30:18.066Z,5.90
2023-06-09T21:35:19.645Z,5.32
2023-06-09T21:40:21.244Z,5.30
2023-06-09T21:45:24.162Z,5.38
2023-06-09T21:50:25.757Z,5.25
2023-06-09T21:55:27.592Z,5.70
2023-06-09T22:00:30.426Z,5.45
2023-06-09T22:05:31.970Z,5.38
2023-06-09T22:10:35.497Z,4.72
2023-06-09T22:15:37.023Z,5.15
2023-06-09T22:20:38.799Z,5.50
2023-06-09T22:25:40.411Z,5.13
2023-06-09T22:30:42.289Z,4.63
2023-06-09T22:35:44.015Z,4.50
2023-06-09T22:40:46.212Z,4.10
2023-06-09T22:45:47.843Z,4.35
2023-06-09T22:50:49.412Z,4.13
2023-06-09T22:55:51.715Z,4.20
2023-06-09T23:00:53.258Z,4.15
2023-06-09T23:05:56.988Z,4.18
2023-06-09T23:10:58.732Z,4.05
2023-06-09T23:16:00.393Z,4.25
2023-06-09T23:21:03.143Z,4.78
2023-06-09T23:26:05.263Z,5.63
2023-06-09T23:31:07.382Z,3.80
2023-06-09T23:36:08.934Z,4.10
2023-06-09T23:41:10.430Z,4.60
2023-06-09T23:46:12.014Z,4.07
2023-06-09T23:51:13.647Z,3.72
2023-06-09T23:56:15.190Z,4.70
